Terminal Aerodrome Forecast
Issued by NWS Amarillo, TX

Home | Current Version | Previous Version | Text Only | Print | Product List | Glossary On
Versions: 1 2 3 4 5 6 7 8 9 10 11 12 13 14 15 16 17 18 19 20
793
FTUS44 KAMA 290530
TAFGUY
TAF
KGUY 290530Z 2906/3006 17008KT P6SM SCT080 BKN200
     FM290800 19006KT 4SM BR SCT060 OVC120
     FM291400 14008KT P6SM SCT060 OVC200=

USA.gov is the U.S. government's official web portal to all federal, state and local government web resources and services.